sensor_id;sensor_type;location;lat;lon;timestamp;pressure;altitude;pressure_sealevel;temperature
73894;BMP280;62699;50.534;12.784;2024-03-02T00:00:59;95241.72;;;5.89
73894;BMP280;62699;50.534;12.784;2024-03-02T00:05:59;95233.47;;;5.87
73894;BMP280;62699;50.534;12.784;2024-03-02T00:11:00;95236.16;;;5.87
73894;BMP280;62699;50.534;12.784;2024-03-02T00:16:03;95231.28;;;5.86
73894;BMP280;62699;50.534;12.784;2024-03-02T00:21:06;95225.69;;;5.83
73894;BMP280;62699;50.534;12.784;2024-03-02T00:26:11;95235.16;;;5.84
73894;BMP280;62699;50.534;12.784;2024-03-02T00:31:12;95230.31;;;5.83
73894;BMP280;62699;50.534;12.784;2024-03-02T00:36:15;95233.47;;;5.81
73894;BMP280;62699;50.534;12.784;2024-03-02T00:41:20;95232.25;;;5.82
73894;BMP280;62699;50.534;12.784;2024-03-02T00:46:21;95225.44;;;5.81
73894;BMP280;62699;50.534;12.784;2024-03-02T00:51:22;95222.78;;;5.81
73894;BMP280;62699;50.534;12.784;2024-03-02T00:56:24;95225.22;;;5.79
73894;BMP280;62699;50.534;12.784;2024-03-02T01:01:24;95235.91;;;5.79
73894;BMP280;62699;50.534;12.784;2024-03-02T01:06:24;95227.63;;;5.77
73894;BMP280;62699;50.534;12.784;2024-03-02T01:11:25;95222.28;;;5.77
73894;BMP280;62699;50.534;12.784;2024-03-02T01:16:25;95222.28;;;5.77
73894;BMP280;62699;50.534;12.784;2024-03-02T01:21:25;95227.63;;;5.77
73894;BMP280;62699;50.534;12.784;2024-03-02T01:26:25;95219.38;;;5.75
73894;BMP280;62699;50.534;12.784;2024-03-02T01:31:26;95220.56;;;5.74
73894;BMP280;62699;50.534;12.784;2024-03-02T01:36:26;95224.44;;;5.73
73894;BMP280;62699;50.534;12.784;2024-03-02T01:41:27;95222.53;;;5.68
73894;BMP280;62699;50.534;12.784;2024-03-02T01:46:27;95226.66;;;5.69
73894;BMP280;62699;50.534;12.784;2024-03-02T01:51:27;95223.75;;;5.67
73894;BMP280;62699;50.534;12.784;2024-03-02T01:56:27;95214.28;;;5.66
73894;BMP280;62699;50.534;12.784;2024-03-02T02:01:28;95211.59;;;5.66
73894;BMP280;62699;50.534;12.784;2024-03-02T02:06:28;95210.88;;;5.66
73894;BMP280;62699;50.534;12.784;2024-03-02T02:11:28;95203.81;;;5.63
73894;BMP280;62699;50.534;12.784;2024-03-02T02:16:28;95209.63;;;5.61
73894;BMP280;62699;50.534;12.784;2024-03-02T02:21:29;95203.81;;;5.63
73894;BMP280;62699;50.534;12.784;2024-03-02T02:26:29;95204.81;;;5.65
73894;BMP280;62699;50.534;12.784;2024-03-02T02:31:39;95204.81;;;5.71
73894;BMP280;62699;50.534;12.784;2024-03-02T02:36:40;95201.91;;;5.69
73894;BMP280;62699;50.534;12.784;2024-03-02T02:41:40;95203.13;;;5.68
73894;BMP280;62699;50.534;12.784;2024-03-02T02:46:41;95199.97;;;5.69
73894;BMP280;62699;50.534;12.784;2024-03-02T02:51:41;95206.75;;;5.70
73894;BMP280;62699;50.534;12.784;2024-03-02T02:56:41;95204.34;;;5.72
73894;BMP280;62699;50.534;12.784;2024-03-02T03:01:42;95205.28;;;5.75
73894;BMP280;62699;50.534;12.784;2024-03-02T03:06:42;95198.25;;;5.72
73894;BMP280;62699;50.534;12.784;2024-03-02T03:11:42;95194.13;;;5.71
73894;BMP280;62699;50.534;12.784;2024-03-02T03:16:42;95203.59;;;5.72
73894;BMP280;62699;50.534;12.784;2024-03-02T03:21:43;95211.09;;;5.73
73894;BMP280;62699;50.534;12.784;2024-03-02T03:26:43;95202.41;;;5.78
73894;BMP280;62699;50.534;12.784;2024-03-02T03:31:44;95210.41;;;5.78
73894;BMP280;62699;50.534;12.784;2024-03-02T03:36:44;95203.84;;;5.79
73894;BMP280;62699;50.534;12.784;2024-03-02T03:41:44;95200.47;;;5.79
73894;BMP280;62699;50.534;12.784;2024-03-02T03:46:45;95194.88;;;5.77
73894;BMP280;62699;50.534;12.784;2024-03-02T03:51:45;95210.88;;;5.77
73894;BMP280;62699;50.534;12.784;2024-03-02T03:56:45;95215.50;;;5.76
73894;BMP280;62699;50.534;12.784;2024-03-02T04:01:45;95220.84;;;5.76
73894;BMP280;62699;50.534;12.784;2024-03-02T04:06:46;95223.75;;;5.78
73894;BMP280;62699;50.534;12.784;2024-03-02T04:11:46;95226.16;;;5.76
73894;BMP280;62699;50.534;12.784;2024-03-02T04:16:46;95226.91;;;5.77
73894;BMP280;62699;50.534;12.784;2024-03-02T04:21:46;95230.78;;;5.76
73894;BMP280;62699;50.534;12.784;2024-03-02T04:26:47;95239.53;;;5.76
73894;BMP280;62699;50.534;12.784;2024-03-02T04:31:47;95249.00;;;5.77
73894;BMP280;62699;50.534;12.784;2024-03-02T04:36:47;95247.28;;;5.80
73894;BMP280;62699;50.534;12.784;2024-03-02T04:41:48;95256.78;;;5.87
73894;BMP280;62699;50.534;12.784;2024-03-02T04:46:48;95256.06;;;5.86
73894;BMP280;62699;50.534;12.784;2024-03-02T04:51:48;95254.13;;;5.87
73894;BMP280;62699;50.534;12.784;2024-03-02T04:56:49;95258.00;;;5.86
73894;BMP280;62699;50.534;12.784;2024-03-02T05:01:49;95259.91;;;5.91
73894;BMP280;62699;50.534;12.784;2024-03-02T05:06:49;95271.09;;;5.89
73894;BMP280;62699;50.534;12.784;2024-03-02T05:11:52;95267.69;;;5.89
73894;BMP280;62699;50.534;12.784;2024-03-02T05:17:10;95282.50;;;5.90
73894;BMP280;62699;50.534;12.784;2024-03-02T05:22:11;95291.75;;;5.89
73894;BMP280;62699;50.534;12.784;2024-03-02T05:27:11;95290.28;;;5.88
73894;BMP280;62699;50.534;12.784;2024-03-02T05:32:11;95294.66;;;5.85
73894;BMP280;62699;50.534;12.784;2024-03-02T05:37:11;95294.66;;;5.85
73894;BMP280;62699;50.534;12.784;2024-03-02T05:42:12;95293.19;;;5.84
73894;BMP280;62699;50.534;12.784;2024-03-02T05:47:12;95289.53;;;5.81
73894;BMP280;62699;50.534;12.784;2024-03-02T05:52:12;95298.75;;;5.80
73894;BMP280;62699;50.534;12.784;2024-03-02T05:57:12;95313.34;;;5.79
73894;BMP280;62699;50.534;12.784;2024-03-02T06:02:17;95312.09;;;5.80
73894;BMP280;62699;50.534;12.784;2024-03-02T06:07:17;95316.00;;;5.79
73894;BMP280;62699;50.534;12.784;2024-03-02T06:12:18;95312.09;;;5.80
73894;BMP280;62699;50.534;12.784;2024-03-02T06:17:19;95320.38;;;5.82
73894;BMP280;62699;50.534;12.784;2024-03-02T06:22:19;95329.59;;;5.81
73894;BMP280;62699;50.534;12.784;2024-03-02T06:27:19;95327.19;;;5.83
73894;BMP280;62699;50.534;12.784;2024-03-02T06:32:20;95333.97;;;5.84
73894;BMP280;62699;50.534;12.784;2024-03-02T06:37:20;95333.75;;;5.88
73894;BMP280;62699;50.534;12.784;2024-03-02T06:42:20;95332.03;;;5.91
73894;BMP280;62699;50.534;12.784;2024-03-02T06:47:20;95337.63;;;5.93
73894;BMP280;62699;50.534;12.784;2024-03-02T06:52:21;95335.69;;;5.93
73894;BMP280;62699;50.534;12.784;2024-03-02T06:57:21;95334.25;;;5.98
73894;BMP280;62699;50.534;12.784;2024-03-02T07:02:21;95341.28;;;6.01
73894;BMP280;62699;50.534;12.784;2024-03-02T07:07:22;95338.38;;;6.04
73894;BMP280;62699;50.534;12.784;2024-03-02T07:12:23;95341.78;;;6.10
73894;BMP280;62699;50.534;12.784;2024-03-02T07:17:23;95344.97;;;6.20
73894;BMP280;62699;50.534;12.784;2024-03-02T07:22:23;95327.72;;;6.32
73894;BMP280;62699;50.534;12.784;2024-03-02T07:27:24;95331.13;;;6.44
73894;BMP280;62699;50.534;12.784;2024-03-02T07:32:24;95343.03;;;6.54
73894;BMP280;62699;50.534;12.784;2024-03-02T07:37:24;95344.50;;;6.60
73894;BMP280;62699;50.534;12.784;2024-03-02T07:42:25;95342.09;;;6.68
73894;BMP280;62699;50.534;12.784;2024-03-02T07:47:25;95340.59;;;6.73
73894;BMP280;62699;50.534;12.784;2024-03-02T07:52:25;95347.91;;;6.78
73894;BMP280;62699;50.534;12.784;2024-03-02T07:57:26;95355.41;;;6.85
73894;BMP280;62699;50.534;12.784;2024-03-02T08:02:26;95362.94;;;6.97
73894;BMP280;62699;50.534;12.784;2024-03-02T08:07:26;95376.56;;;6.99
73894;BMP280;62699;50.534;12.784;2024-03-02T08:12:26;95372.88;;;7.08
73894;BMP280;62699;50.534;12.784;2024-03-02T08:17:27;95366.56;;;7.17
73894;BMP280;62699;50.534;12.784;2024-03-02T08:22:27;95372.84;;;7.25
73894;BMP280;62699;50.534;12.784;2024-03-02T08:27:28;95383.53;;;7.41
73894;BMP280;62699;50.534;12.784;2024-03-02T08:32:28;95376.69;;;7.52
73894;BMP280;62699;50.534;12.784;2024-03-02T08:37:28;95387.06;;;7.72
73894;BMP280;62699;50.534;12.784;2024-03-02T08:42:29;95392.13;;;7.81
73894;BMP280;62699;50.534;12.784;2024-03-02T08:47:29;95391.53;;;7.99
73894;BMP280;62699;50.534;12.784;2024-03-02T08:52:29;95389.25;;;8.14
73894;BMP280;62699;50.534;12.784;2024-03-02T08:57:30;95392.88;;;8.22
73894;BMP280;62699;50.534;12.784;2024-03-02T09:02:30;95398.06;;;8.45
73894;BMP280;62699;50.534;12.784;2024-03-02T09:07:31;95415.31;;;8.60
73894;BMP280;62699;50.534;12.784;2024-03-02T09:12:32;95415.03;;;8.64
73894;BMP280;62699;50.534;12.784;2024-03-02T09:17:32;95423.28;;;8.66
73894;BMP280;62699;50.534;12.784;2024-03-02T09:22:33;95418.13;;;8.73
73894;BMP280;62699;50.534;12.784;2024-03-02T09:27:33;95410.47;;;8.83
73894;BMP280;62699;50.534;12.784;2024-03-02T09:32:33;95413.56;;;8.93
73894;BMP280;62699;50.534;12.784;2024-03-02T09:37:33;95408.00;;;9.09
73894;BMP280;62699;50.534;12.784;2024-03-02T09:42:34;95406.63;;;9.51
73894;BMP280;62699;50.534;12.784;2024-03-02T09:47:35;95401.03;;;9.68
73894;BMP280;62699;50.534;12.784;2024-03-02T09:52:36;95394.00;;;9.65
73894;BMP280;62699;50.534;12.784;2024-03-02T09:57:36;95390.00;;;9.72
73894;BMP280;62699;50.534;12.784;2024-03-02T10:02:36;95399.66;;;9.80
73894;BMP280;62699;50.534;12.784;2024-03-02T10:07:36;95392.41;;;9.94
73894;BMP280;62699;50.534;12.784;2024-03-02T10:12:37;95393.25;;;10.21
73894;BMP280;62699;50.534;12.784;2024-03-02T10:17:37;95390.47;;;10.26
73894;BMP280;62699;50.534;12.784;2024-03-02T10:22:38;95391.25;;;10.40
73894;BMP280;62699;50.534;12.784;2024-03-02T10:27:39;95382.31;;;10.32
73894;BMP280;62699;50.534;12.784;2024-03-02T10:32:39;95379.34;;;10.93
73894;BMP280;62699;50.534;12.784;2024-03-02T10:37:40;95372.63;;;11.26
73894;BMP280;62699;50.534;12.784;2024-03-02T10:42:43;95359.84;;;11.14
73894;BMP280;62699;50.534;12.784;2024-03-02T10:47:46;95354.63;;;11.55
73894;BMP280;62699;50.534;12.784;2024-03-02T10:52:47;95356.91;;;12.19
73894;BMP280;62699;50.534;12.784;2024-03-02T10:57:51;95361.03;;;12.20
73894;BMP280;62699;50.534;12.784;2024-03-02T11:02:57;95372.09;;;12.09
73894;BMP280;62699;50.534;12.784;2024-03-02T11:08:06;95354.38;;;12.21
73894;BMP280;62699;50.534;12.784;2024-03-02T11:13:09;95358.03;;;12.10
73894;BMP280;62699;50.534;12.784;2024-03-02T11:18:09;95360.88;;;12.46
73894;BMP280;62699;50.534;12.784;2024-03-02T11:23:11;95353.66;;;12.41
73894;BMP280;62699;50.534;12.784;2024-03-02T11:28:11;95348.84;;;12.75
73894;BMP280;62699;50.534;12.784;2024-03-02T11:33:11;95354.44;;;11.87
73894;BMP280;62699;50.534;12.784;2024-03-02T11:38:11;95348.41;;;11.94
73894;BMP280;62699;50.534;12.784;2024-03-02T11:43:12;95349.31;;;11.97
73894;BMP280;62699;50.534;12.784;2024-03-02T11:48:15;95358.72;;;12.24
73894;BMP280;62699;50.534;12.784;2024-03-02T11:53:16;95341.66;;;11.54
73894;BMP280;62699;50.534;12.784;2024-03-02T11:58:17;95355.28;;;12.03
73894;BMP280;62699;50.534;12.784;2024-03-02T12:03:24;95356.69;;;12.17
73894;BMP280;62699;50.534;12.784;2024-03-02T12:08:28;95342.53;;;12.24
73894;BMP280;62699;50.534;12.784;2024-03-02T12:13:28;95337.31;;;11.84
73894;BMP280;62699;50.534;12.784;2024-03-02T12:18:28;95335.41;;;11.59
73894;BMP280;62699;50.534;12.784;2024-03-02T12:23:29;95327.31;;;11.59
73894;BMP280;62699;50.534;12.784;2024-03-02T12:28:29;95332.59;;;11.77
73894;BMP280;62699;50.534;12.784;2024-03-02T12:33:29;95326.16;;;11.80
73894;BMP280;62699;50.534;12.784;2024-03-02T12:38:30;95322.81;;;11.87
73894;BMP280;62699;50.534;12.784;2024-03-02T12:43:31;95316.22;;;11.96
73894;BMP280;62699;50.534;12.784;2024-03-02T12:48:31;95316.78;;;11.81
73894;BMP280;62699;50.534;12.784;2024-03-02T12:53:33;95320.19;;;12.16
73894;BMP280;62699;50.534;12.784;2024-03-02T12:58:41;95320.22;;;12.23
73894;BMP280;62699;50.534;12.784;2024-03-02T13:03:42;95320.50;;;12.12
73894;BMP280;62699;50.534;12.784;2024-03-02T13:08:42;95319.66;;;12.46
73894;BMP280;62699;50.534;12.784;2024-03-02T13:13:42;95319.50;;;12.23
73894;BMP280;62699;50.534;12.784;2024-03-02T13:18:44;95310.63;;;12.15
73894;BMP280;62699;50.534;12.784;2024-03-02T13:23:44;95309.50;;;11.89
73894;BMP280;62699;50.534;12.784;2024-03-02T13:28:45;95307.22;;;11.60
73894;BMP280;62699;50.534;12.784;2024-03-02T13:33:45;95302.97;;;11.64
73894;BMP280;62699;50.534;12.784;2024-03-02T13:38:46;95300.16;;;11.70
73894;BMP280;62699;50.534;12.784;2024-03-02T13:43:47;95306.91;;;11.63
73894;BMP280;62699;50.534;12.784;2024-03-02T13:48:47;95303.13;;;11.79
73894;BMP280;62699;50.534;12.784;2024-03-02T13:53:47;95313.47;;;11.88
73894;BMP280;62699;50.534;12.784;2024-03-02T13:58:47;95312.66;;;11.80
73894;BMP280;62699;50.534;12.784;2024-03-02T14:03:47;95305.69;;;11.51
73894;BMP280;62699;50.534;12.784;2024-03-02T14:08:48;95298.97;;;11.58
73894;BMP280;62699;50.534;12.784;2024-03-02T14:13:48;95291.69;;;11.86
73894;BMP280;62699;50.534;12.784;2024-03-02T14:18:54;95278.94;;;12.08
73894;BMP280;62699;50.534;12.784;2024-03-02T14:23:54;95288.22;;;11.99
73894;BMP280;62699;50.534;12.784;2024-03-02T14:28:55;95280.97;;;11.94
73894;BMP280;62699;50.534;12.784;2024-03-02T14:33:55;95268.06;;;11.79
73894;BMP280;62699;50.534;12.784;2024-03-02T14:38:56;95274.28;;;11.87
73894;BMP280;62699;50.534;12.784;2024-03-02T14:43:56;95269.63;;;11.75
73894;BMP280;62699;50.534;12.784;2024-03-02T14:48:57;95257.34;;;11.66
73894;BMP280;62699;50.534;12.784;2024-03-02T14:53:58;95254.69;;;11.53
73894;BMP280;62699;50.534;12.784;2024-03-02T14:58:58;95258.25;;;11.48
73894;BMP280;62699;50.534;12.784;2024-03-02T15:03:58;95256.84;;;11.34
73894;BMP280;62699;50.534;12.784;2024-03-02T15:08:59;95250.44;;;11.24
73894;BMP280;62699;50.534;12.784;2024-03-02T15:14:01;95258.31;;;11.22
73894;BMP280;62699;50.534;12.784;2024-03-02T15:19:01;95252.13;;;11.00
73894;BMP280;62699;50.534;12.784;2024-03-02T15:24:02;95259.81;;;10.83
73894;BMP280;62699;50.534;12.784;2024-03-02T15:29:03;95262.31;;;10.68
73894;BMP280;62699;50.534;12.784;2024-03-02T15:34:04;95255.09;;;10.63
73894;BMP280;62699;50.534;12.784;2024-03-02T15:39:04;95254.88;;;10.48
73894;BMP280;62699;50.534;12.784;2024-03-02T15:44:08;95245.16;;;10.45
73894;BMP280;62699;50.534;12.784;2024-03-02T15:49:09;95252.59;;;10.39
73894;BMP280;62699;50.534;12.784;2024-03-02T15:54:10;95248.13;;;10.28
73894;BMP280;62699;50.534;12.784;2024-03-02T15:59:10;95251.66;;;10.23
73894;BMP280;62699;50.534;12.784;2024-03-02T16:04:11;95246.22;;;10.10
73894;BMP280;62699;50.534;12.784;2024-03-02T16:09:11;95254.91;;;10.03
73894;BMP280;62699;50.534;12.784;2024-03-02T16:14:13;95238.53;;;9.88
73894;BMP280;62699;50.534;12.784;2024-03-02T16:19:14;95240.88;;;9.78
73894;BMP280;62699;50.534;12.784;2024-03-02T16:24:14;95241.13;;;9.61
73894;BMP280;62699;50.534;12.784;2024-03-02T16:29:14;95247.16;;;9.49
73894;BMP280;62699;50.534;12.784;2024-03-02T16:34:15;95242.41;;;9.23
73894;BMP280;62699;50.534;12.784;2024-03-02T16:39:15;95249.84;;;9.11
73894;BMP280;62699;50.534;12.784;2024-03-02T16:44:15;95249.34;;;8.94
73894;BMP280;62699;50.534;12.784;2024-03-02T16:49:16;95245.31;;;8.82
73894;BMP280;62699;50.534;12.784;2024-03-02T16:54:17;95258.31;;;8.78
73894;BMP280;62699;50.534;12.784;2024-03-02T16:59:17;95261.88;;;8.62
73894;BMP280;62699;50.534;12.784;2024-03-02T17:04:17;95269.09;;;8.48
73894;BMP280;62699;50.534;12.784;2024-03-02T17:09:17;95271.81;;;8.43
73894;BMP280;62699;50.534;12.784;2024-03-02T17:14:18;95283.44;;;8.51
73894;BMP280;62699;50.534;12.784;2024-03-02T17:19:18;95277.88;;;8.49
73894;BMP280;62699;50.534;12.784;2024-03-02T17:24:18;95288.50;;;8.54
73894;BMP280;62699;50.534;12.784;2024-03-02T17:29:18;95291.00;;;8.52
73894;BMP280;62699;50.534;12.784;2024-03-02T17:34:19;95283.09;;;8.35
73894;BMP280;62699;50.534;12.784;2024-03-02T17:39:19;95289.59;;;8.46
73894;BMP280;62699;50.534;12.784;2024-03-02T17:44:20;95294.94;;;8.46
73894;BMP280;62699;50.534;12.784;2024-03-02T17:49:20;95303.72;;;8.46
73894;BMP280;62699;50.534;12.784;2024-03-02T17:54:20;95303.47;;;8.44
73894;BMP280;62699;50.534;12.784;2024-03-02T17:59:20;95304.19;;;8.50
73894;BMP280;62699;50.534;12.784;2024-03-02T18:04:21;95299.94;;;8.60
73894;BMP280;62699;50.534;12.784;2024-03-02T18:09:22;95306.47;;;8.65
73894;BMP280;62699;50.534;12.784;2024-03-02T18:14:22;95304.59;;;8.60
73894;BMP280;62699;50.534;12.784;2024-03-02T18:19:23;95303.13;;;8.59
73894;BMP280;62699;50.534;12.784;2024-03-02T18:24:23;95302.41;;;8.58
73894;BMP280;62699;50.534;12.784;2024-03-02T18:29:27;95292.75;;;8.50
73894;BMP280;62699;50.534;12.784;2024-03-02T18:34:28;95294.94;;;8.46
73894;BMP280;62699;50.534;12.784;2024-03-02T18:39:28;95300.53;;;8.48
73894;BMP280;62699;50.534;12.784;2024-03-02T18:44:28;95286.00;;;8.38
73894;BMP280;62699;50.534;12.784;2024-03-02T18:49:29;95292.63;;;8.31
73894;BMP280;62699;50.534;12.784;2024-03-02T18:54:29;95292.47;;;8.23
73894;BMP280;62699;50.534;12.784;2024-03-02T18:59:29;95287.19;;;8.12
73894;BMP280;62699;50.534;12.784;2024-03-02T19:04:30;95291.41;;;8.02
73894;BMP280;62699;50.534;12.784;2024-03-02T19:09:30;95280.00;;;7.96
73894;BMP280;62699;50.534;12.784;2024-03-02T19:14:31;95276.16;;;7.86
73894;BMP280;62699;50.534;12.784;2024-03-02T19:19:32;95281.59;;;7.75
73894;BMP280;62699;50.534;12.784;2024-03-02T19:24:39;95281.38;;;7.67
73894;BMP280;62699;50.534;12.784;2024-03-02T19:29:39;95284.84;;;7.62
73894;BMP280;62699;50.534;12.784;2024-03-02T19:34:39;95281.94;;;7.60
73894;BMP280;62699;50.534;12.784;2024-03-02T19:39:39;95278.28;;;7.58
73894;BMP280;62699;50.534;12.784;2024-03-02T19:44:41;95268.34;;;7.53
73894;BMP280;62699;50.534;12.784;2024-03-02T19:49:43;95262.75;;;7.50
73894;BMP280;62699;50.534;12.784;2024-03-02T19:54:43;95250.31;;;7.53
73894;BMP280;62699;50.534;12.784;2024-03-02T19:59:43;95260.56;;;7.49
73894;BMP280;62699;50.534;12.784;2024-03-02T20:04:44;95251.06;;;7.48
73894;BMP280;62699;50.534;12.784;2024-03-02T20:09:45;95235.75;;;7.43
73894;BMP280;62699;50.534;12.784;2024-03-02T20:14:48;95234.38;;;7.31
73894;BMP280;62699;50.534;12.784;2024-03-02T20:19:48;95231.53;;;7.18
73894;BMP280;62699;50.534;12.784;2024-03-02T20:24:48;95214.81;;;7.00
73894;BMP280;62699;50.534;12.784;2024-03-02T20:29:51;95216.31;;;6.85
73894;BMP280;62699;50.534;12.784;2024-03-02T20:34:51;95206.91;;;6.67
73894;BMP280;62699;50.534;12.784;2024-03-02T20:39:51;95205.50;;;6.49
73894;BMP280;62699;50.534;12.784;2024-03-02T20:44:53;95196.03;;;6.37
73894;BMP280;62699;50.534;12.784;2024-03-02T20:49:53;95196.56;;;6.19
73894;BMP280;62699;50.534;12.784;2024-03-02T20:54:53;95194.84;;;6.05
73894;BMP280;62699;50.534;12.784;2024-03-02T20:59:54;95191.72;;;5.90
73894;BMP280;62699;50.534;12.784;2024-03-02T21:04:54;95188.53;;;5.74
73894;BMP280;62699;50.534;12.784;2024-03-02T21:09:55;95188.06;;;5.59
73894;BMP280;62699;50.534;12.784;2024-03-02T21:14:57;95179.78;;;5.46
73894;BMP280;62699;50.534;12.784;2024-03-02T21:19:57;95177.09;;;5.35
73894;BMP280;62699;50.534;12.784;2024-03-02T21:24:57;95177.78;;;5.19
73894;BMP280;62699;50.534;12.784;2024-03-02T21:30:01;95177.97;;;5.10
73894;BMP280;62699;50.534;12.784;2024-03-02T21:35:01;95176.97;;;4.96
73894;BMP280;62699;50.534;12.784;2024-03-02T21:40:01;95173.53;;;4.84
73894;BMP280;62699;50.534;12.784;2024-03-02T21:45:02;95176.88;;;4.74
73894;BMP280;62699;50.534;12.784;2024-03-02T21:50:04;95174.91;;;4.63
73894;BMP280;62699;50.534;12.784;2024-03-02T21:55:05;95162.03;;;4.56
73894;BMP280;62699;50.534;12.784;2024-03-02T22:00:06;95165.84;;;4.49
73894;BMP280;62699;50.534;12.784;2024-03-02T22:05:06;95143.53;;;4.36
73894;BMP280;62699;50.534;12.784;2024-03-02T22:10:07;95137.66;;;4.26
73894;BMP280;62699;50.534;12.784;2024-03-02T22:15:08;95131.28;;;4.18
73894;BMP280;62699;50.534;12.784;2024-03-02T22:20:08;95132.19;;;4.09
73894;BMP280;62699;50.534;12.784;2024-03-02T22:25:10;95132.38;;;4.00
73894;BMP280;62699;50.534;12.784;2024-03-02T22:30:11;95137.44;;;3.93
73894;BMP280;62699;50.534;12.784;2024-03-02T22:35:11;95135.25;;;3.91
73894;BMP280;62699;50.534;12.784;2024-03-02T22:40:11;95130.34;;;3.84
73894;BMP280;62699;50.534;12.784;2024-03-02T22:45:12;95121.31;;;3.76
73894;BMP280;62699;50.534;12.784;2024-03-02T22:50:13;95131.19;;;3.70
73894;BMP280;62699;50.534;12.784;2024-03-02T22:55:13;95131.09;;;3.59
73894;BMP280;62699;50.534;12.784;2024-03-02T23:00:14;95128.69;;;3.61
73894;BMP280;62699;50.534;12.784;2024-03-02T23:05:31;95124.78;;;3.56
73894;BMP280;62699;50.534;12.784;2024-03-02T23:10:32;95121.06;;;3.48
73894;BMP280;62699;50.534;12.784;2024-03-02T23:15:32;95127.28;;;3.39
73894;BMP280;62699;50.534;12.784;2024-03-02T23:20:32;95118.28;;;3.31
73894;BMP280;62699;50.534;12.784;2024-03-02T23:25:35;95117.72;;;3.27
73894;BMP280;62699;50.534;12.784;2024-03-02T23:30:36;95108.47;;;3.17
73894;BMP280;62699;50.534;12.784;2024-03-02T23:35:36;95107.22;;;3.13
73894;BMP280;62699;50.534;12.784;2024-03-02T23:40:37;95105.56;;;3.15
73894;BMP280;62699;50.534;12.784;2024-03-02T23:45:40;95100.38;;;3.06
73894;BMP280;62699;50.534;12.784;2024-03-02T23:50:40;95101.06;;;3.01
73894;BMP280;62699;50.534;12.784;2024-03-02T23:55:40;95094.28;;;3.00
